Time;durP1;ratioP1;P1;durP2;ratioP2;P2;SDS_P1;SDS_P2;PMS_P1;PMS_P2;Temp;Humidity;BMP_temperature;BMP_pressure;BME280_temperature;BME280_humidity;BME280_pressure;Samples;Min_cycle;Max_cycle;Signal;HPM_P1;HPM_P2
2022/05/28 00:00:23;;;;;;;17.40;4.25;;;;;;;;;;6241147;23;20467;-89
2022/05/28 00:02:49;;;;;;;19.58;4.45;;;;;;;;;;6242219;23;20008;-90
2022/05/28 00:05:15;;;;;;;16.98;4.60;;;;;;;;;;6240486;23;20000;-90
2022/05/28 00:07:41;;;;;;;13.32;4.10;;;;;;;;;;6239142;23;20073;-89
2022/05/28 00:10:09;;;;;;;16.08;4.22;;;;;;;;;;6241428;23;20000;-90
2022/05/28 00:12:35;;;;;;;19.67;4.40;;;;;;;;;;6240837;23;20440;-89
2022/05/28 00:15:01;;;;;;;20.17;5.25;;;;;;;;;;6238969;23;20232;-90
2022/05/28 00:17:28;;;;;;;21.77;4.60;;;;;;;;;;6240947;23;20011;-89
2022/05/28 00:19:54;;;;;;;15.50;4.72;;;;;;;;;;6240825;23;19996;-91
2022/05/28 00:22:20;;;;;;;15.52;4.95;;;;;;;;;;6242332;23;20067;-89
2022/05/28 00:24:46;;;;;;;14.80;4.43;;;;;;;;;;6239342;23;20090;-89
2022/05/28 00:27:12;;;;;;;12.20;4.32;;;;;;;;;;6239552;23;20004;-89
2022/05/28 00:29:38;;;;;;;20.63;4.97;;;;;;;;;;6240894;23;20053;-91
2022/05/28 00:32:05;;;;;;;18.88;4.53;;;;;;;;;;6240243;23;20075;-88
2022/05/28 00:34:31;;;;;;;21.45;4.80;;;;;;;;;;6241017;23;20061;-90
2022/05/28 00:36:57;;;;;;;20.77;4.80;;;;;;;;;;6240971;23;20001;-90
2022/05/28 00:39:23;;;;;;;16.13;4.13;;;;;;;;;;6239228;23;20436;-88
2022/05/28 00:41:50;;;;;;;19.15;4.78;;;;;;;;;;6241864;23;20004;-88
2022/05/28 00:44:16;;;;;;;14.00;4.20;;;;;;;;;;6240984;23;20506;-89
2022/05/28 00:46:43;;;;;;;17.48;5.07;;;;;;;;;;6240912;23;20003;-89
2022/05/28 00:49:14;;;;;;;16.73;4.93;;;;;;;;;;6239242;23;20008;-89
2022/05/28 00:51:42;;;;;;;17.15;4.80;;;;;;;;;;6241411;23;20008;-88
2022/05/28 00:54:09;;;;;;;16.58;4.68;;;;;;;;;;6241135;23;20012;-88
2022/05/28 00:56:36;;;;;;;17.30;4.82;;;;;;;;;;6242907;23;20007;-88
2022/05/28 00:59:02;;;;;;;15.63;5.18;;;;;;;;;;6240424;23;20016;-89
2022/05/28 01:01:30;;;;;;;12.20;4.32;;;;;;;;;;6240723;23;20007;-89
2022/05/28 01:03:56;;;;;;;16.02;4.75;;;;;;;;;;6242715;23;20050;-89
2022/05/28 01:06:44;;;;;;;20.35;5.20;;;;;;;;;;6243670;23;20008;-88
2022/05/28 01:09:18;;;;;;;22.65;4.97;;;;;;;;;;6240467;23;20004;-89
2022/05/28 01:11:48;;;;;;;19.45;4.90;;;;;;;;;;6242434;23;20004;-89
2022/05/28 01:14:20;;;;;;;17.98;4.88;;;;;;;;;;6242276;23;20011;-88
2022/05/28 01:16:51;;;;;;;17.40;4.85;;;;;;;;;;6243063;23;20000;-90
2022/05/28 01:19:17;;;;;;;20.98;5.10;;;;;;;;;;6251777;23;20015;-88
2022/05/28 01:22:01;;;;;;;17.80;5.00;;;;;;;;;;6253315;23;20039;-88
2022/05/28 01:24:39;;;;;;;18.17;5.45;;;;;;;;;;6262486;23;20038;-89
2022/05/28 01:27:08;;;;;;;18.58;5.13;;;;;;;;;;6249198;23;20004;-88
2022/05/28 01:29:40;;;;;;;19.60;5.53;;;;;;;;;;6241804;23;20027;-88
2022/05/28 01:32:06;;;;;;;20.90;5.25;;;;;;;;;;6240837;23;20322;-88
2022/05/28 01:34:33;;;;;;;24.60;5.80;;;;;;;;;;6242032;23;20004;-89
2022/05/28 01:36:59;;;;;;;16.92;4.88;;;;;;;;;;6241671;23;20030;-89
2022/05/28 01:39:26;;;;;;;14.75;4.60;;;;;;;;;;6242970;23;20000;-89
2022/05/28 01:41:52;;;;;;;16.73;5.03;;;;;;;;;;6243305;23;20071;-91
2022/05/28 01:44:21;;;;;;;19.88;6.43;;;;;;;;;;6242434;23;20000;-89
2022/05/28 01:46:47;;;;;;;15.82;5.15;;;;;;;;;;6242197;23;20004;-89
2022/05/28 01:49:15;;;;;;;17.17;5.05;;;;;;;;;;6241933;23;20012;-89
2022/05/28 01:51:44;;;;;;;27.25;6.15;;;;;;;;;;6240255;23;20008;-88
2022/05/28 01:54:13;;;;;;;12.77;4.68;;;;;;;;;;6240324;23;20014;-88
2022/05/28 01:56:44;;;;;;;15.13;5.07;;;;;;;;;;6242268;23;20005;-90
2022/05/28 01:59:11;;;;;;;20.17;5.13;;;;;;;;;;6242242;23;20508;-88
2022/05/28 02:01:37;;;;;;;25.38;5.88;;;;;;;;;;6239563;23;20315;-89
2022/05/28 02:04:04;;;;;;;16.70;5.15;;;;;;;;;;6240151;23;20050;-88
2022/05/28 02:06:31;;;;;;;24.77;6.45;;;;;;;;;;6240122;23;20012;-89
2022/05/28 02:08:57;;;;;;;20.23;5.53;;;;;;;;;;6243277;23;19997;-88
2022/05/28 02:11:28;;;;;;;18.85;5.28;;;;;;;;;;6241391;23;20015;-89
2022/05/28 02:14:07;;;;;;;15.73;5.22;;;;;;;;;;6242896;23;20015;-90
2022/05/28 02:16:36;;;;;;;19.88;5.50;;;;;;;;;;6240764;23;20007;-89
2022/05/28 02:19:04;;;;;;;19.60;5.30;;;;;;;;;;6242133;23;20407;-88
2022/05/28 02:21:37;;;;;;;14.95;5.47;;;;;;;;;;6240454;23;20004;-89
2022/05/28 02:24:07;;;;;;;14.73;5.05;;;;;;;;;;6242189;23;20000;-89
2022/05/28 02:26:33;;;;;;;16.58;4.93;;;;;;;;;;6240197;23;20067;-91
2022/05/28 02:28:59;;;;;;;20.23;5.45;;;;;;;;;;6240463;23;20070;-88
2022/05/28 02:31:30;;;;;;;22.02;6.03;;;;;;;;;;6242622;23;20004;-89
2022/05/28 02:33:57;;;;;;;20.45;6.40;;;;;;;;;;6241358;23;20043;-89
2022/05/28 02:36:23;;;;;;;17.63;5.07;;;;;;;;;;6241898;23;20337;-90
2022/05/28 02:38:50;;;;;;;14.57;5.22;;;;;;;;;;6241791;23;20015;-90
2022/05/28 02:41:16;;;;;;;13.98;4.95;;;;;;;;;;6239756;23;20027;-89
2022/05/28 02:43:42;;;;;;;19.35;5.70;;;;;;;;;;6241817;23;20008;-89
2022/05/28 02:46:08;;;;;;;21.55;5.28;;;;;;;;;;6240045;23;20312;-89
2022/05/28 02:48:35;;;;;;;35.55;5.53;;;;;;;;;;6240434;23;20460;-88
2022/05/28 02:51:02;;;;;;;92.13;5.72;;;;;;;;;;6241447;23;20008;-89
2022/05/28 02:53:28;;;;;;;50.05;5.30;;;;;;;;;;6242635;23;20012;-90
2022/05/28 02:55:54;;;;;;;184.32;7.68;;;;;;;;;;6241673;23;20039;-89
2022/05/28 02:58:20;;;;;;;54.92;6.78;;;;;;;;;;6240122;23;20015;-89
2022/05/28 03:00:46;;;;;;;43.45;6.45;;;;;;;;;;6241501;23;19996;-89
2022/05/28 03:03:18;;;;;;;58.75;5.20;;;;;;;;;;6241516;23;20034;-89
2022/05/28 03:05:45;;;;;;;39.40;5.00;;;;;;;;;;6241441;23;20007;-89
2022/05/28 03:08:11;;;;;;;9.30;5.28;;;;;;;;;;6241478;23;20004;-88
2022/05/28 03:10:37;;;;;;;14.45;4.95;;;;;;;;;;6240795;23;20000;-90
2022/05/28 03:13:03;;;;;;;12.05;4.75;;;;;;;;;;6240827;23;20093;-89
2022/05/28 03:15:29;;;;;;;11.50;4.88;;;;;;;;;;6242770;23;20007;-89
2022/05/28 03:17:56;;;;;;;10.52;4.65;;;;;;;;;;6241786;23;20000;-91
2022/05/28 03:20:22;;;;;;;7.38;4.80;;;;;;;;;;6240373;23;20006;-88
2022/05/28 03:22:48;;;;;;;10.90;5.18;;;;;;;;;;6241249;23;20000;-89
2022/05/28 03:25:14;;;;;;;20.25;4.72;;;;;;;;;;6241233;23;20051;-89
2022/05/28 03:27:40;;;;;;;29.80;4.55;;;;;;;;;;6241179;23;20071;-89
2022/05/28 03:30:07;;;;;;;12.20;5.53;;;;;;;;;;6241247;23;20050;-89
2022/05/28 03:32:33;;;;;;;14.63;4.55;;;;;;;;;;6240657;23;20011;-89
2022/05/28 03:34:59;;;;;;;20.67;5.70;;;;;;;;;;6242024;23;20011;-89
2022/05/28 03:37:25;;;;;;;13.25;5.50;;;;;;;;;;6241103;23;20054;-89
2022/05/28 03:39:51;;;;;;;15.40;5.00;;;;;;;;;;6239541;23;20014;-89
2022/05/28 03:42:17;;;;;;;35.15;6.15;;;;;;;;;;6239210;23;20389;-89
2022/05/28 03:44:43;;;;;;;146.88;5.97;;;;;;;;;;6239512;23;20571;-89
2022/05/28 03:47:09;;;;;;;26.00;5.30;;;;;;;;;;6239834;23;20039;-89
2022/05/28 03:49:36;;;;;;;151.23;6.00;;;;;;;;;;6241309;23;19997;-90
2022/05/28 03:52:03;;;;;;;126.18;5.30;;;;;;;;;;6241821;23;20000;-90
2022/05/28 03:54:29;;;;;;;28.27;4.30;;;;;;;;;;6242143;23;20079;-89
2022/05/28 03:57:06;;;;;;;63.30;5.47;;;;;;;;;;6257865;23;19976;-89
2022/05/28 03:59:34;;;;;;;124.95;5.15;;;;;;;;;;6259841;23;20010;-90
2022/05/28 04:02:00;;;;;;;35.78;4.15;;;;;;;;;;6261934;22;20027;-89
2022/05/28 04:04:26;;;;;;;21.88;3.97;;;;;;;;;;6245359;23;20000;-88
2022/05/28 04:06:52;;;;;;;24.08;4.22;;;;;;;;;;6240739;23;20008;-89
2022/05/28 04:09:18;;;;;;;81.38;4.53;;;;;;;;;;6240907;23;20007;-92
2022/05/28 04:11:44;;;;;;;64.70;4.18;;;;;;;;;;6240977;23;20050;-89
2022/05/28 04:14:10;;;;;;;55.80;3.75;;;;;;;;;;6240709;23;20012;-90
2022/05/28 04:16:37;;;;;;;15.65;3.75;;;;;;;;;;6240976;23;19997;-88
2022/05/28 04:19:03;;;;;;;4.65;3.38;;;;;;;;;;6241892;23;20008;-89
2022/05/28 04:21:29;;;;;;;9.73;4.13;;;;;;;;;;6241767;23;19996;-89
2022/05/28 04:23:56;;;;;;;5.70;3.47;;;;;;;;;;6239020;23;20035;-89
2022/05/28 04:26:22;;;;;;;32.78;3.55;;;;;;;;;;6241123;23;20011;-89
2022/05/28 04:28:48;;;;;;;123.20;5.18;;;;;;;;;;6241125;23;20030;-88
2022/05/28 04:31:14;;;;;;;47.17;3.85;;;;;;;;;;6240072;23;20035;-89
2022/05/28 04:33:40;;;;;;;9.00;3.63;;;;;;;;;;6240569;23;20012;-89
2022/05/28 04:36:06;;;;;;;46.63;3.85;;;;;;;;;;6239038;23;20008;-89
2022/05/28 04:38:32;;;;;;;24.05;3.90;;;;;;;;;;6241734;23;20008;-89
2022/05/28 04:40:58;;;;;;;12.27;3.58;;;;;;;;;;6240250;23;20000;-88
2022/05/28 04:43:24;;;;;;;24.48;3.20;;;;;;;;;;6239023;23;20095;-88
2022/05/28 04:45:50;;;;;;;185.05;5.40;;;;;;;;;;6240788;23;20067;-89
2022/05/28 04:48:16;;;;;;;115.95;4.45;;;;;;;;;;6238999;23;20054;-88
2022/05/28 04:50:42;;;;;;;122.93;4.45;;;;;;;;;;6240630;23;20000;-89
2022/05/28 04:53:08;;;;;;;97.50;4.63;;;;;;;;;;6240312;23;20009;-89
2022/05/28 04:55:34;;;;;;;74.63;3.70;;;;;;;;;;6240159;23;20005;-89
2022/05/28 04:58:01;;;;;;;51.85;4.40;;;;;;;;;;6239399;23;20035;-90
2022/05/28 05:00:27;;;;;;;57.00;3.35;;;;;;;;;;6240896;23;20256;-89
2022/05/28 05:02:53;;;;;;;41.35;3.33;;;;;;;;;;6240876;23;20012;-88
2022/05/28 05:05:19;;;;;;;71.68;3.67;;;;;;;;;;6239032;23;20012;-92
2022/05/28 05:07:45;;;;;;;18.50;2.97;;;;;;;;;;6238948;23;20004;-90
2022/05/28 05:10:11;;;;;;;28.38;3.10;;;;;;;;;;6240966;23;19996;-89
2022/05/28 05:12:38;;;;;;;51.05;3.83;;;;;;;;;;6240579;23;20042;-89
2022/05/28 05:15:05;;;;;;;24.70;3.35;;;;;;;;;;6239801;23;20009;-89
2022/05/28 05:17:31;;;;;;;7.55;3.33;;;;;;;;;;6240399;23;20000;-88
2022/05/28 05:19:57;;;;;;;7.95;3.72;;;;;;;;;;6238880;23;20000;-88
2022/05/28 05:22:24;;;;;;;18.30;3.50;;;;;;;;;;6240371;23;19996;-89
2022/05/28 05:24:51;;;;;;;27.23;4.35;;;;;;;;;;6240778;23;20665;-88
2022/05/28 05:27:17;;;;;;;59.60;4.50;;;;;;;;;;6240399;23;20000;-88
2022/05/28 05:29:43;;;;;;;4.43;3.20;;;;;;;;;;6240442;23;20004;-89
2022/05/28 05:32:09;;;;;;;5.63;3.33;;;;;;;;;;6240002;23;20000;-90
2022/05/28 05:34:37;;;;;;;136.55;5.45;;;;;;;;;;6241299;23;20004;-88
2022/05/28 05:37:03;;;;;;;138.10;5.65;;;;;;;;;;6241124;23;20057;-88
2022/05/28 05:39:29;;;;;;;208.82;7.05;;;;;;;;;;6241992;23;20102;-89
2022/05/28 05:41:56;;;;;;;129.85;5.38;;;;;;;;;;6241597;23;20016;-88
2022/05/28 05:44:22;;;;;;;168.77;7.40;;;;;;;;;;6242266;23;20000;-89
2022/05/28 05:46:48;;;;;;;17.02;3.70;;;;;;;;;;6236385;23;20043;-87
2022/05/28 05:49:14;;;;;;;5.00;3.70;;;;;;;;;;6237146;23;20000;-88
2022/05/28 05:51:45;;;;;;;7.72;3.60;;;;;;;;;;6240559;23;20085;-88
2022/05/28 05:54:11;;;;;;;6.50;3.53;;;;;;;;;;6238868;23;20143;-88
2022/05/28 05:56:37;;;;;;;7.43;3.60;;;;;;;;;;6242483;23;20335;-90
2022/05/28 05:59:03;;;;;;;6.15;3.53;;;;;;;;;;6239517;23;20098;-89
2022/05/28 06:01:30;;;;;;;4.80;3.42;;;;;;;;;;6240110;23;20328;-89
2022/05/28 06:03:56;;;;;;;9.15;3.80;;;;;;;;;;6239912;23;19996;-89
2022/05/28 06:06:22;;;;;;;7.10;3.60;;;;;;;;;;6242084;23;20058;-90
2022/05/28 06:08:48;;;;;;;7.22;3.70;;;;;;;;;;6241886;23;20440;-88
2022/05/28 06:11:14;;;;;;;10.25;5.00;;;;;;;;;;6239782;23;20015;-88
2022/05/28 06:13:41;;;;;;;13.20;4.60;;;;;;;;;;6242518;23;20018;-88
2022/05/28 06:16:07;;;;;;;17.88;4.53;;;;;;;;;;6241678;23;20004;-88
2022/05/28 06:18:33;;;;;;;14.80;5.28;;;;;;;;;;6240393;23;20011;-91
2022/05/28 06:21:00;;;;;;;10.05;4.15;;;;;;;;;;6242462;23;20067;-87
2022/05/28 06:23:26;;;;;;;11.93;3.97;;;;;;;;;;6242481;23;20000;-95
2022/05/28 06:25:52;;;;;;;13.18;4.10;;;;;;;;;;6242437;23;20003;-93
2022/05/28 06:28:18;;;;;;;12.48;3.92;;;;;;;;;;6241942;23;20447;-90
2022/05/28 06:30:45;;;;;;;9.77;4.95;;;;;;;;;;6241961;23;20500;-89
2022/05/28 06:33:12;;;;;;;13.02;3.88;;;;;;;;;;6243635;23;20040;-88
2022/05/28 06:35:38;;;;;;;16.27;5.00;;;;;;;;;;6255356;23;20437;-88
2022/05/28 06:38:05;;;;;;;15.43;4.50;;;;;;;;;;6256721;23;20030;-89
2022/05/28 06:40:31;;;;;;;15.52;4.30;;;;;;;;;;6260883;22;20058;-87
2022/05/28 06:42:57;;;;;;;21.23;4.80;;;;;;;;;;6247117;23;20008;-87
2022/05/28 06:45:24;;;;;;;20.15;4.82;;;;;;;;;;6241048;23;20004;-87
2022/05/28 06:47:50;;;;;;;19.02;4.82;;;;;;;;;;6240349;23;20008;-89
2022/05/28 06:53:03;;;;;;;16.95;4.45;;;;;;;;;;6242771;23;20858;-90
2022/05/28 06:55:29;;;;;;;18.45;4.63;;;;;;;;;;6243247;23;19996;-91
2022/05/28 06:57:55;;;;;;;12.63;3.83;;;;;;;;;;6241232;23;20062;-90
2022/05/28 07:00:21;;;;;;;16.05;3.67;;;;;;;;;;6242228;23;20002;-90
2022/05/28 07:02:50;;;;;;;18.83;4.30;;;;;;;;;;6241318;23;20046;-91
2022/05/28 07:05:16;;;;;;;17.45;4.60;;;;;;;;;;6241090;23;20008;-91
2022/05/28 07:07:43;;;;;;;20.50;4.28;;;;;;;;;;6241722;23;20008;-91
2022/05/28 07:10:09;;;;;;;20.92;4.35;;;;;;;;;;6241479;23;20011;-91
2022/05/28 07:12:35;;;;;;;18.90;4.82;;;;;;;;;;6240207;23;20004;-91
2022/05/28 07:15:01;;;;;;;15.95;4.35;;;;;;;;;;6240322;23;20008;-86
2022/05/28 07:17:27;;;;;;;26.35;4.43;;;;;;;;;;6245075;23;20003;-88
2022/05/28 07:19:53;;;;;;;18.20;4.20;;;;;;;;;;6241398;23;20000;-86
2022/05/28 07:22:19;;;;;;;12.88;3.70;;;;;;;;;;6241171;23;20010;-85
2022/05/28 07:24:45;;;;;;;13.68;4.03;;;;;;;;;;6241379;23;20007;-88
2022/05/28 07:27:12;;;;;;;15.75;4.10;;;;;;;;;;6241870;23;20027;-86
2022/05/28 07:29:39;;;;;;;17.25;4.32;;;;;;;;;;6242188;23;20000;-86
2022/05/28 07:32:06;;;;;;;12.70;4.18;;;;;;;;;;6241786;23;20001;-88
2022/05/28 07:34:32;;;;;;;12.88;3.90;;;;;;;;;;6241786;23;20034;-87
2022/05/28 07:36:58;;;;;;;12.80;3.92;;;;;;;;;;6239452;23;20456;-92
2022/05/28 07:39:24;;;;;;;21.58;4.32;;;;;;;;;;6241076;23;20008;-85
2022/05/28 07:41:50;;;;;;;12.20;4.00;;;;;;;;;;6239272;23;20000;-93
2022/05/28 07:44:16;;;;;;;17.75;4.93;;;;;;;;;;6241969;23;20019;-91
2022/05/28 07:46:42;;;;;;;10.40;3.45;;;;;;;;;;6242469;23;20055;-87
2022/05/28 07:49:09;;;;;;;18.05;3.80;;;;;;;;;;6241078;23;20000;-87
2022/05/28 07:51:38;;;;;;;19.05;3.78;;;;;;;;;;6241229;23;20394;-89
2022/05/28 07:54:05;;;;;;;13.07;3.55;;;;;;;;;;6239235;23;20016;-89
2022/05/28 07:56:31;;;;;;;13.20;3.53;;;;;;;;;;6239400;23;20004;-88
2022/05/28 07:58:59;;;;;;;16.45;3.50;;;;;;;;;;6241839;23;20000;-89
2022/05/28 08:01:26;;;;;;;14.52;3.10;;;;;;;;;;6240021;23;20310;-93
2022/05/28 08:03:58;;;;;;;14.20;4.88;;;;;;;;;;6242235;23;20318;-91
2022/05/28 08:06:25;;;;;;;15.68;4.22;;;;;;;;;;6242659;23;20012;-89
2022/05/28 08:08:54;;;;;;;18.00;3.95;;;;;;;;;;6241750;23;20004;-90
2022/05/28 08:11:21;;;;;;;15.70;4.30;;;;;;;;;;6239967;23;20008;-91
2022/05/28 08:13:47;;;;;;;13.30;3.30;;;;;;;;;;6241417;23;20008;-86
2022/05/28 08:16:14;;;;;;;13.60;3.28;;;;;;;;;;6242037;23;20075;-86
2022/05/28 08:18:40;;;;;;;11.48;4.00;;;;;;;;;;6241124;23;20452;-85
2022/05/28 08:23:52;;;;;;;11.35;3.58;;;;;;;;;;6240721;23;20019;-89
2022/05/28 08:26:19;;;;;;;13.10;3.63;;;;;;;;;;6241347;23;19997;-87
2022/05/28 08:28:46;;;;;;;12.73;3.28;;;;;;;;;;6242205;23;20015;-86
2022/05/28 08:31:12;;;;;;;10.35;3.38;;;;;;;;;;6240632;23;19996;-92
2022/05/28 08:33:38;;;;;;;11.32;3.10;;;;;;;;;;6240267;23;20035;-93
2022/05/28 08:36:04;;;;;;;10.07;3.28;;;;;;;;;;6240578;23;20000;-86
2022/05/28 08:38:31;;;;;;;14.10;3.42;;;;;;;;;;6239871;23;20011;-87
2022/05/28 08:40:57;;;;;;;7.30;2.80;;;;;;;;;;6240695;23;20098;-93
2022/05/28 08:43:24;;;;;;;14.00;3.38;;;;;;;;;;6240701;23;20334;-86
2022/05/28 08:45:51;;;;;;;10.48;2.75;;;;;;;;;;6240678;23;20023;-86
2022/05/28 08:48:20;;;;;;;18.58;3.45;;;;;;;;;;6241758;23;20007;-91
2022/05/28 08:50:52;;;;;;;16.30;3.45;;;;;;;;;;6241544;23;20376;-89
2022/05/28 08:53:22;;;;;;;14.88;4.03;;;;;;;;;;6240593;23;20351;-89
2022/05/28 08:55:50;;;;;;;15.18;3.67;;;;;;;;;;6241687;23;20000;-87
2022/05/28 08:58:20;;;;;;;16.05;3.97;;;;;;;;;;6239867;23;20014;-87
2022/05/28 09:00:57;;;;;;;12.32;3.20;;;;;;;;;;6234669;23;20011;-86
2022/05/28 09:03:26;;;;;;;8.55;3.17;;;;;;;;;;6239921;23;20050;-87
2022/05/28 09:05:52;;;;;;;12.43;3.38;;;;;;;;;;6240072;23;20075;-88
2022/05/28 09:08:38;;;;;;;15.00;4.18;;;;;;;;;;6240446;23;20039;-88
2022/05/28 09:11:07;;;;;;;13.18;3.22;;;;;;;;;;6240624;22;20023;-87
2022/05/28 09:13:33;;;;;;;16.95;3.45;;;;;;;;;;6253982;23;20012;-86
2022/05/28 09:16:01;;;;;;;13.63;3.45;;;;;;;;;;6250440;23;20004;-88
2022/05/28 09:18:32;;;;;;;16.23;3.60;;;;;;;;;;6258553;23;20000;-85
2022/05/28 09:20:58;;;;;;;14.20;3.03;;;;;;;;;;6247021;23;20004;-87
2022/05/28 09:23:24;;;;;;;21.25;4.40;;;;;;;;;;6241957;23;20058;-87
2022/05/28 09:25:51;;;;;;;12.18;3.28;;;;;;;;;;6240681;23;20083;-87
2022/05/28 09:28:26;;;;;;;13.02;3.25;;;;;;;;;;6242697;23;20027;-86
2022/05/28 09:30:52;;;;;;;10.10;3.40;;;;;;;;;;6239774;23;20322;-89
2022/05/28 09:33:37;;;;;;;15.10;3.42;;;;;;;;;;6242235;23;20447;-88
2022/05/28 09:36:07;;;;;;;11.50;3.88;;;;;;;;;;6239400;23;20004;-90
2022/05/28 09:38:42;;;;;;;15.48;3.15;;;;;;;;;;6239615;23;20000;-87
2022/05/28 09:41:24;;;;;;;7.20;2.33;;;;;;;;;;6239824;23;20079;-88
2022/05/28 09:44:02;;;;;;;9.10;2.70;;;;;;;;;;6242546;23;20400;-87
2022/05/28 09:46:33;;;;;;;17.75;3.05;;;;;;;;;;6242432;23;20071;-91
2022/05/28 09:48:59;;;;;;;9.75;3.20;;;;;;;;;;6241393;23;20009;-88
2022/05/28 09:51:27;;;;;;;10.93;2.92;;;;;;;;;;6242690;23;20071;-88
2022/05/28 09:54:23;;;;;;;8.95;2.72;;;;;;;;;;6240749;23;20121;-90
2022/05/28 09:56:57;;;;;;;9.60;2.78;;;;;;;;;;6242013;23;20029;-88
2022/05/28 09:59:23;;;;;;;13.43;2.72;;;;;;;;;;6240533;23;20436;-88
2022/05/28 10:01:56;;;;;;;11.35;3.20;;;;;;;;;;6241507;23;20008;-90
2022/05/28 10:04:29;;;;;;;11.45;2.25;;;;;;;;;;6240461;23;20007;-86
2022/05/28 10:06:56;;;;;;;12.93;2.75;;;;;;;;;;6241947;23;20004;-87
2022/05/28 10:09:23;;;;;;;8.85;2.60;;;;;;;;;;6242594;23;20055;-90
2022/05/28 10:11:53;;;;;;;16.30;3.57;;;;;;;;;;6243792;23;20420;-92
2022/05/28 10:14:19;;;;;;;9.45;2.67;;;;;;;;;;6243489;23;20008;-89
2022/05/28 10:16:47;;;;;;;8.80;2.50;;;;;;;;;;6240819;23;20318;-89
2022/05/28 10:19:26;;;;;;;14.80;3.03;;;;;;;;;;6242492;23;20008;-89
2022/05/28 10:21:52;;;;;;;;;;;;;;;;;;6243212;23;20003;-87
2022/05/28 10:24:19;;;;;;;9.10;2.90;;;;;;;;;;6242988;23;19900;-91
2022/05/28 10:26:56;;;;;;;11.05;2.80;;;;;;;;;;6240993;23;20391;-90
2022/05/28 10:29:28;;;;;;;13.32;2.58;;;;;;;;;;6241647;23;20417;-89
2022/05/28 10:31:55;;;;;;;7.68;2.35;;;;;;;;;;6242046;23;20348;-90
2022/05/28 10:34:41;;;;;;;11.18;2.40;;;;;;;;;;6232601;23;20012;-88
2022/05/28 10:37:08;;;;;;;13.45;2.88;;;;;;;;;;6240412;23;20023;-90
2022/05/28 10:39:37;;;;;;;11.02;2.50;;;;;;;;;;6240684;23;20035;-89
2022/05/28 10:42:05;;;;;;;13.02;2.85;;;;;;;;;;6239351;23;20012;-91
2022/05/28 10:44:31;;;;;;;;;;;;;;;;;;6242060;23;20007;-88
2022/05/28 10:46:57;;;;;;;8.77;2.58;;;;;;;;;;6241757;23;19974;-88
2022/05/28 10:49:33;;;;;;;9.73;2.60;;;;;;;;;;6241828;23;20000;-89
2022/05/28 10:52:17;;;;;;;11.10;2.40;;;;;;;;;;6241677;23;20322;-87
2022/05/28 10:54:47;;;;;;;9.30;2.00;;;;;;;;;;6232621;23;20381;-89
2022/05/28 10:57:16;;;;;;;8.07;2.20;;;;;;;;;;6241472;23;20008;-89
2022/05/28 11:00:00;;;;;;;8.27;2.13;;;;;;;;;;6237052;23;19997;-89
2022/05/28 11:02:36;;;;;;;7.90;2.15;;;;;;;;;;6237671;23;20000;-89
2022/05/28 11:05:08;;;;;;;7.68;2.50;;;;;;;;;;6238354;23;20040;-88
2022/05/28 11:07:40;;;;;;;7.55;1.95;;;;;;;;;;6240687;23;20012;-90
2022/05/28 11:10:25;;;;;;;9.93;2.67;;;;;;;;;;6235919;23;20004;-89
2022/05/28 11:13:00;;;;;;;10.68;2.13;;;;;;;;;;6242472;23;20000;-88
2022/05/28 11:15:40;;;;;;;13.07;2.47;;;;;;;;;;6235736;23;20015;-88
2022/05/28 11:18:25;;;;;;;8.55;2.20;;;;;;;;;;6236593;23;20004;-88
2022/05/28 11:20:51;;;;;;;8.30;2.20;;;;;;;;;;6241853;23;20011;-89
2022/05/28 11:23:20;;;;;;;8.85;2.30;;;;;;;;;;6237117;23;20079;-91
2022/05/28 11:26:07;;;;;;;6.72;2.20;;;;;;;;;;6236374;23;20027;-88
2022/05/28 11:28:45;;;;;;;8.15;2.25;;;;;;;;;;6229718;23;20087;-90
2022/05/28 11:31:36;;;;;;;7.20;2.20;;;;;;;;;;6236160;23;20000;-87
2022/05/28 11:34:23;;;;;;;6.70;1.95;;;;;;;;;;6221075;23;20019;-89
2022/05/28 11:36:56;;;;;;;5.57;1.70;;;;;;;;;;6220924;23;20341;-88
2022/05/28 11:39:32;;;;;;;5.68;2.05;;;;;;;;;;6240548;23;20004;-90
2022/05/28 11:42:25;;;;;;;11.10;2.35;;;;;;;;;;6236448;23;20023;-88
2022/05/28 11:44:56;;;;;;;8.50;2.38;;;;;;;;;;6224965;23;20011;-90
2022/05/28 11:47:28;;;;;;;6.72;2.20;;;;;;;;;;6239518;23;20086;-87
2022/05/28 11:52:48;;;;;;;12.00;2.35;;;;;;;;;;6248321;23;20095;-87
2022/05/28 11:55:24;;;;;;;8.68;2.10;;;;;;;;;;6255058;23;20015;-88
2022/05/28 11:57:53;;;;;;;9.63;2.05;;;;;;;;;;6248090;23;20001;-90
2022/05/28 12:00:20;;;;;;;25.13;3.25;;;;;;;;;;6239549;23;20015;-88
2022/05/28 12:02:54;;;;;;;9.80;2.10;;;;;;;;;;6241848;23;20004;-92
2022/05/28 12:05:22;;;;;;;5.68;1.85;;;;;;;;;;6239767;23;20306;-90
2022/05/28 12:08:06;;;;;;;6.05;1.85;;;;;;;;;;6240891;23;20071;-91
2022/05/28 12:10:46;;;;;;;8.40;2.17;;;;;;;;;;6238743;23;20026;-89
2022/05/28 12:13:24;;;;;;;11.43;2.08;;;;;;;;;;6237740;23;20404;-89
2022/05/28 12:16:01;;;;;;;7.80;2.33;;;;;;;;;;6238078;23;20002;-91
2022/05/28 12:18:30;;;;;;;8.93;2.10;;;;;;;;;;6238862;23;20011;-90
2022/05/28 12:21:08;;;;;;;;;;;;;;;;;;;;;
2022/05/28 12:23:41;;;;;;;6.75;2.28;;;;;;;;;;6237056;23;20091;-90
2022/05/28 12:26:23;;;;;;;5.93;2.25;;;;;;;;;;6239544;23;20062;-89
2022/05/28 12:28:53;;;;;;;8.60;2.10;;;;;;;;;;6238011;23;20000;-92
2022/05/28 12:31:24;;;;;;;6.22;1.92;;;;;;;;;;6238608;23;20031;-91
2022/05/28 12:33:56;;;;;;;7.63;2.20;;;;;;;;;;6239651;23;20019;-92
2022/05/28 12:36:26;;;;;;;8.27;1.88;;;;;;;;;;6235864;23;20000;-89
2022/05/28 12:39:01;;;;;;;6.35;1.75;;;;;;;;;;6237514;23;20004;-89
2022/05/28 12:41:32;;;;;;;10.20;2.50;;;;;;;;;;6239864;23;19996;-92
2022/05/28 12:44:21;;;;;;;5.95;2.25;;;;;;;;;;6235143;23;20012;-89
2022/05/28 12:47:00;;;;;;;10.00;2.17;;;;;;;;;;6228404;23;20004;-92
2022/05/28 12:49:35;;;;;;;5.28;2.00;;;;;;;;;;6238552;23;19999;-89
2022/05/28 12:52:19;;;;;;;9.02;2.40;;;;;;;;;;6241760;23;20337;-90
2022/05/28 12:54:48;;;;;;;18.02;3.85;;;;;;;;;;6238666;23;20008;-91
2022/05/28 12:57:29;;;;;;;6.80;1.98;;;;;;;;;;6237657;23;20012;-90
2022/05/28 13:00:31;;;;;;;6.88;1.70;;;;;;;;;;6240981;23;20012;-88
2022/05/28 13:03:01;;;;;;;7.63;1.83;;;;;;;;;;6203774;23;20005;-90
2022/05/28 13:05:42;;;;;;;5.95;1.75;;;;;;;;;;6236097;23;20008;-89
2022/05/28 13:08:09;;;;;;;6.13;1.88;;;;;;;;;;6240523;23;20007;-88
2022/05/28 13:10:38;;;;;;;6.18;1.92;;;;;;;;;;6241159;23;20000;-89
2022/05/28 13:13:14;;;;;;;11.18;1.95;;;;;;;;;;6240584;23;20008;-89
2022/05/28 13:16:08;;;;;;;;;;;;;;;;;;;;;
2022/05/28 13:18:46;;;;;;;8.63;2.10;;;;;;;;;;6242789;23;20079;-88
2022/05/28 13:21:15;;;;;;;10.48;2.53;;;;;;;;;;6240651;23;20015;-89
2022/05/28 13:23:44;;;;;;;7.97;2.30;;;;;;;;;;6241388;23;20023;-88
2022/05/28 13:26:26;;;;;;;7.28;1.88;;;;;;;;;;6242786;23;20433;-91
2022/05/28 13:29:11;;;;;;;8.50;2.08;;;;;;;;;;6242532;23;20000;-90
2022/05/28 13:31:43;;;;;;;8.32;2.33;;;;;;;;;;6243054;23;20071;-88
2022/05/28 13:34:24;;;;;;;5.82;1.67;;;;;;;;;;6241076;23;20069;-92
2022/05/28 13:36:53;;;;;;;13.18;3.30;;;;;;;;;;6245203;23;20340;-90
2022/05/28 13:39:38;;;;;;;;;;;;;;;;;;;;;
2022/05/28 13:42:16;;;;;;;;;;;;;;;;;;;;;
2022/05/28 13:44:50;;;;;;;10.90;2.50;;;;;;;;;;6242707;23;20051;-92
2022/05/28 13:47:27;;;;;;;9.70;2.30;;;;;;;;;;6241165;23;20227;-92
2022/05/28 13:49:58;;;;;;;7.43;2.13;;;;;;;;;;6243744;23;20031;-93
2022/05/28 13:52:24;;;;;;;8.60;2.08;;;;;;;;;;6239856;23;20000;-88
2022/05/28 13:54:56;;;;;;;8.88;2.50;;;;;;;;;;6243096;23;20055;-90
2022/05/28 13:57:43;;;;;;;11.50;2.38;;;;;;;;;;6243491;23;20002;-90
2022/05/28 14:00:20;;;;;;;8.70;2.20;;;;;;;;;;6240871;23;20341;-91
2022/05/28 14:03:10;;;;;;;8.45;2.38;;;;;;;;;;6240886;23;20094;-92
2022/05/28 14:06:04;;;;;;;9.05;2.35;;;;;;;;;;6240545;23;20004;-92
2022/05/28 14:11:14;;;;;;;17.27;2.85;;;;;;;;;;6226238;23;20005;-88
2022/05/28 14:13:49;;;;;;;9.27;2.00;;;;;;;;;;6240797;23;20012;-92
2022/05/28 14:19:09;;;;;;;7.43;1.90;;;;;;;;;;6195352;23;20011;-92
2022/05/28 14:21:42;;;;;;;12.30;2.42;;;;;;;;;;6242363;23;20004;-91
2022/05/28 14:24:35;;;;;;;5.45;2.10;;;;;;;;;;6241347;23;20012;-87
2022/05/28 14:27:06;;;;;;;8.27;2.00;;;;;;;;;;6252693;23;20004;-90
2022/05/28 14:29:41;;;;;;;6.10;2.10;;;;;;;;;;6266333;22;19988;-91
2022/05/28 14:32:11;;;;;;;10.07;2.45;;;;;;;;;;6249181;22;20008;-90
2022/05/28 14:34:41;;;;;;;8.45;1.95;;;;;;;;;;6240319;23;20098;-92
2022/05/28 14:37:08;;;;;;;7.13;1.88;;;;;;;;;;6240240;23;20349;-88
2022/05/28 14:39:47;;;;;;;10.18;2.50;;;;;;;;;;6242033;23;20372;-86
2022/05/28 14:42:35;;;;;;;6.90;1.90;;;;;;;;;;6241088;23;20023;-88
2022/05/28 14:45:11;;;;;;;8.00;2.20;;;;;;;;;;6242950;23;20078;-93
2022/05/28 14:47:38;;;;;;;8.93;2.38;;;;;;;;;;6241659;23;20006;-92
2022/05/28 14:50:52;;;;;;;7.30;2.13;;;;;;;;;;6241910;23;20000;-91
2022/05/28 14:53:24;;;;;;;10.38;2.40;;;;;;;;;;6234402;22;20004;-89
2022/05/28 14:55:50;;;;;;;7.38;1.80;;;;;;;;;;6240655;23;20008;-88
2022/05/28 14:58:18;;;;;;;6.10;1.90;;;;;;;;;;6241202;23;20429;-87
2022/05/28 15:00:44;;;;;;;12.43;2.05;;;;;;;;;;6240888;23;20010;-88
2022/05/28 15:03:15;;;;;;;10.60;2.28;;;;;;;;;;6239844;23;20000;-90
2022/05/28 15:05:42;;;;;;;6.78;1.90;;;;;;;;;;6239560;23;20077;-88
2022/05/28 15:08:18;;;;;;;9.13;1.98;;;;;;;;;;6239691;23;20083;-89